Time;durP1;ratioP1;P1;durP2;ratioP2;P2;SDS_P1;SDS_P2;PMS_P1;PMS_P2;Temp;Humidity;BMP_temperature;BMP_pressure;BME280_temperature;BME280_humidity;BME280_pressure;Samples;Min_cycle;Max_cycle;Signal;HPM_P1;HPM_P2
2022/08/04 00:08:24;;;;;;;5.80;2.13;;;21.70;99.90;;;;;;20837554;28;20138;-37
2022/08/04 00:18:44;;;;;;;1.58;0.50;;;21.60;99.90;;;;;;20833821;28;20140;-37
2022/08/04 00:28:47;;;;;;;1.00;0.40;;;21.50;99.90;;;;;;20832643;28;20987;-38
2022/08/04 00:38:49;;;;;;;3.38;1.27;;;21.40;99.90;;;;;;20827388;28;20333;-37
2022/08/04 00:48:56;;;;;;;0.90;0.30;;;21.30;99.90;;;;;;20817500;28;20123;-38
2022/08/04 00:59:29;;;;;;;1.55;0.63;;;21.30;99.90;;;;;;20827868;28;20145;-38
2022/08/04 01:09:42;;;;;;;1.15;0.60;;;21.20;99.90;;;;;;20826801;28;21599;-38
2022/08/04 01:19:43;;;;;;;2.55;0.60;;;21.00;99.90;;;;;;20824394;28;20087;-38
2022/08/04 01:29:54;;;;;;;0.88;0.40;;;20.90;99.90;;;;;;20830754;28;20037;-38
2022/08/04 01:40:07;;;;;;;2.63;0.50;;;20.90;99.90;;;;;;20823185;28;20157;-38
2022/08/04 01:50:13;;;;;;;2.03;0.43;;;20.90;99.90;;;;;;20838892;28;20515;-38
2022/08/04 02:00:20;;;;;;;2.33;1.35;;;20.80;99.90;;;;;;20848246;28;20527;-38
2022/08/04 02:10:52;;;;;;;1.30;0.30;;;20.60;99.90;;;;;;20834485;28;20910;-38
2022/08/04 02:20:57;;;;;;;3.20;1.00;;;20.60;99.90;;;;;;20836957;28;20742;-38
2022/08/04 02:31:17;;;;;;;2.72;0.60;;;20.60;99.90;;;;;;20839322;28;20102;-39
2022/08/04 02:41:21;;;;;;;2.25;0.50;;;20.60;99.90;;;;;;20841872;28;20883;-38
2022/08/04 02:51:26;;;;;;;1.38;0.70;;;20.60;99.90;;;;;;20838244;28;20048;-39
2022/08/04 03:01:28;;;;;;;1.38;0.60;;;20.50;99.90;;;;;;20839984;28;20033;-38
2022/08/04 03:11:37;;;;;;;1.80;0.45;;;20.60;99.90;;;;;;20842193;28;20178;-38
2022/08/04 03:21:56;;;;;;;2.97;0.50;;;20.50;99.90;;;;;;20834687;28;21042;-38
2022/08/04 03:32:00;;;;;;;1.55;0.50;;;20.50;99.90;;;;;;20835328;28;20318;-37
2022/08/04 03:42:10;;;;;;;2.63;0.60;;;20.50;99.90;;;;;;20833341;28;20126;-38
2022/08/04 04:03:26;;;;;;;1.45;0.93;;;20.60;99.90;;;;;;20829818;28;20949;-39
2022/08/04 04:13:47;;;;;;;1.17;0.73;;;20.60;99.90;;;;;;20831084;28;20849;-38
2022/08/04 04:24:07;;;;;;;4.57;0.75;;;20.60;99.90;;;;;;20828394;28;20839;-37
2022/08/04 04:34:28;;;;;;;1.40;0.70;;;20.50;99.90;;;;;;20828642;28;20914;-39
2022/08/04 04:44:54;;;;;;;3.88;1.35;;;20.50;99.90;;;;;;20832796;28;21898;-38
2022/08/04 04:55:12;;;;;;;1.73;0.68;;;20.50;99.90;;;;;;20818282;28;20987;-39
2022/08/04 05:05:13;;;;;;;;;;;20.60;99.90;;;;;;20830535;28;20102;-39
2022/08/04 05:15:15;;;;;;;2.30;0.65;;;20.70;99.90;;;;;;20829862;28;19946;-39
2022/08/04 05:25:19;;;;;;;1.23;0.47;;;20.80;99.90;;;;;;20821625;28;20060;-38
2022/08/04 05:35:29;;;;;;;1.20;0.40;;;21.00;99.90;;;;;;20810691;28;20225;-39
2022/08/04 05:45:32;;;;;;;5.63;0.68;;;21.20;99.90;;;;;;20824000;28;20436;-39
2022/08/04 05:55:34;;;;;;;1.17;0.55;;;21.30;99.90;;;;;;20835202;28;20112;-39
2022/08/04 06:05:35;;;;;;;2.70;0.57;;;21.40;99.90;;;;;;20853986;28;20302;-38
2022/08/04 06:15:39;;;;;;;4.65;0.82;;;21.50;99.90;;;;;;20841403;28;20045;-39
2022/08/04 06:25:47;;;;;;;2.38;0.40;;;21.60;99.90;;;;;;20840559;28;20110;-39
2022/08/04 06:35:50;;;;;;;2.88;0.95;;;21.70;99.90;;;;;;20858664;28;20037;-39
2022/08/04 06:45:53;;;;;;;3.25;1.55;;;21.60;99.90;;;;;;20833243;28;20500;-39
2022/08/04 06:55:56;;;;;;;3.67;0.50;;;21.70;99.90;;;;;;20852174;28;20052;-39
2022/08/04 07:05:58;;;;;;;1.70;0.50;;;21.70;99.90;;;;;;20858566;28;20043;-38
2022/08/04 07:16:00;;;;;;;2.95;1.52;;;21.70;99.90;;;;;;20879160;28;20045;-39
2022/08/04 07:26:01;;;;;;;1.00;0.40;;;21.80;99.90;;;;;;20887081;28;20037;-39
2022/08/04 07:36:02;;;;;;;1.55;0.40;;;22.10;99.90;;;;;;20875978;28;20103;-39
2022/08/04 07:46:03;;;;;;;1.05;0.40;;;22.30;99.90;;;;;;20856312;28;20044;-39
2022/08/04 07:56:05;;;;;;;1.40;0.50;;;22.40;99.90;;;;;;20854464;28;20106;-38
2022/08/04 08:06:05;;;;;;;1.23;0.55;;;22.90;99.90;;;;;;20843955;28;20090;-37
2022/08/04 08:16:07;;;;;;;2.45;0.70;;;23.10;99.90;;;;;;20854464;28;20096;-37
2022/08/04 08:26:08;;;;;;;1.27;0.35;;;23.30;99.90;;;;;;20853849;28;20442;-37
2022/08/04 08:36:28;;;;;;;1.30;0.30;;;23.70;99.90;;;;;;20853311;28;20048;-36
2022/08/04 08:46:46;;;;;;;1.30;0.50;;;24.10;99.90;;;;;;20834558;28;20909;-37
2022/08/04 08:57:15;;;;;;;0.93;0.30;;;24.50;99.90;;;;;;20843400;28;20739;-37
2022/08/04 09:07:25;;;;;;;1.00;0.50;;;24.90;99.90;;;;;;20858274;28;20033;-36
2022/08/04 09:17:27;;;;;;;0.70;0.35;;;25.10;99.90;;;;;;20852647;28;20930;-36
2022/08/04 09:27:51;;;;;;;1.05;0.40;;;24.90;99.90;;;;;;20844049;28;20384;-37
2022/08/04 09:38:29;;;;;;;0.90;0.40;;;25.40;99.90;;;;;;20841869;28;20893;-37
2022/08/04 09:48:54;;;;;;;0.82;0.30;;;25.70;99.90;;;;;;20837935;28;20292;-37
2022/08/04 09:59:21;;;;;;;0.88;0.68;;;25.70;99.90;;;;;;20841461;28;20091;-36
2022/08/04 10:09:43;;;;;;;1.23;0.40;;;25.60;99.90;;;;;;20868406;28;21871;-37
2022/08/04 10:19:47;;;;;;;0.43;0.20;;;25.60;99.90;;;;;;20889376;28;20824;-37
2022/08/04 10:29:48;;;;;;;1.55;0.45;;;25.40;99.90;;;;;;20881138;28;20435;-37
2022/08/04 10:50:23;;;;;;;0.88;0.20;;;25.00;99.90;;;;;;20868796;28;20782;-37
2022/08/04 11:00:26;;;;;;;1.30;0.70;;;24.90;99.90;;;;;;20867237;28;20509;-37
2022/08/04 11:10:31;;;;;;;0.80;0.30;;;25.00;99.90;;;;;;20866146;28;20041;-37
2022/08/04 11:20:49;;;;;;;0.43;0.20;;;25.30;99.90;;;;;;20856513;28;20224;-37
2022/08/04 11:30:56;;;;;;;0.85;0.52;;;25.90;99.90;;;;;;20858205;28;20064;-37
2022/08/04 11:41:03;;;;;;;0.95;0.30;;;26.40;99.90;;;;;;20858701;28;20466;-35
2022/08/04 11:51:06;;;;;;;0.90;0.30;;;26.80;99.90;;;;;;20850841;28;20072;-36
2022/08/04 12:01:40;;;;;;;0.85;0.30;;;27.60;99.90;;;;;;20858769;28;20578;-37
2022/08/04 12:12:05;;;;;;;0.88;0.47;;;28.00;99.90;;;;;;20854294;28;20839;-37
2022/08/04 12:22:20;;;;;;;1.10;0.22;;;28.10;99.90;;;;;;20855867;28;20311;-37
2022/08/04 12:32:28;;;;;;;1.30;0.20;;;28.20;99.90;;;;;;20839848;28;20837;-37
2022/08/04 12:42:41;;;;;;;0.63;0.13;;;27.40;99.90;;;;;;20858912;28;20041;-37
2022/08/04 12:52:55;;;;;;;0.45;0.20;;;28.00;99.90;;;;;;20849038;28;20908;-37
2022/08/04 13:03:04;;;;;;;0.85;0.30;;;28.80;99.90;;;;;;20824034;28;20560;-38
2022/08/04 13:13:14;;;;;;;0.60;0.20;;;29.00;99.90;;;;;;20851010;28;20056;-38
2022/08/04 13:23:17;;;;;;;0.43;0.20;;;29.80;99.90;;;;;;20858708;28;20049;-37
2022/08/04 13:33:19;;;;;;;0.38;0.15;;;30.00;99.70;;;;;;20856245;28;21095;-37
2022/08/04 13:43:30;;;;;;;0.82;0.30;;;30.30;98.30;;;;;;20858802;28;20041;-37
2022/08/04 13:53:33;;;;;;;1.77;0.32;;;31.00;97.90;;;;;;20861966;28;20044;-37
2022/08/04 14:03:45;;;;;;;0.57;0.20;;;30.80;97.90;;;;;;20862757;28;20082;-37
2022/08/04 14:13:46;;;;;;;0.52;0.30;;;30.20;97.80;;;;;;20870274;28;20455;-37
2022/08/04 14:23:52;;;;;;;0.47;0.20;;;29.70;98.30;;;;;;20869138;28;20106;-37
2022/08/04 14:33:54;;;;;;;0.83;0.20;;;29.20;98.20;;;;;;20868960;28;20040;-37
2022/08/04 14:43:57;;;;;;;0.70;0.38;;;29.20;98.80;;;;;;20871565;28;20052;-37
2022/08/04 14:53:58;;;;;;;0.93;0.68;;;28.70;98.30;;;;;;20860683;28;20095;-37
2022/08/04 15:04:01;;;;;;;2.42;0.90;;;27.70;99.30;;;;;;20868725;28;20075;-37
2022/08/04 15:14:04;;;;;;;0.55;0.20;;;27.60;99.40;;;;;;20863446;28;20072;-37
2022/08/04 15:24:06;;;;;;;1.75;0.30;;;27.30;99.80;;;;;;20852909;28;20655;-37
2022/08/04 15:34:08;;;;;;;1.38;0.93;;;27.10;99.90;;;;;;20845403;28;20949;-37
2022/08/04 15:44:20;;;;;;;0.32;0.10;;;27.00;99.90;;;;;;20845210;28;20526;-37
2022/08/04 15:54:21;;;;;;;0.47;0.20;;;26.40;99.90;;;;;;20857042;28;20847;-37
2022/08/04 16:04:24;;;;;;;1.65;0.40;;;26.30;99.90;;;;;;20841265;28;20071;-37
2022/08/04 16:14:33;;;;;;;0.60;0.20;;;26.10;99.90;;;;;;20817836;28;20140;-37
2022/08/04 16:24:39;;;;;;;0.43;0.20;;;25.90;99.90;;;;;;20836530;28;20884;-37
2022/08/04 16:34:59;;;;;;;0.85;0.40;;;25.50;99.90;;;;;;20845377;28;20182;-37
2022/08/04 16:45:06;;;;;;;0.55;0.25;;;25.20;99.90;;;;;;20833238;28;20300;-37
2022/08/04 16:55:07;;;;;;;1.30;0.52;;;24.90;99.90;;;;;;20831625;28;20139;-36
2022/08/04 17:05:20;;;;;;;0.90;0.28;;;24.70;99.90;;;;;;20829462;28;20124;-36
2022/08/04 17:15:22;;;;;;;0.68;0.20;;;24.60;99.90;;;;;;20826972;28;20896;-37
2022/08/04 17:25:23;;;;;;;0.70;0.30;;;24.30;99.90;;;;;;20827042;28;20065;-37
2022/08/04 17:35:24;;;;;;;0.38;0.17;;;24.00;99.90;;;;;;20812163;28;20147;-37
2022/08/04 17:45:25;;;;;;;1.55;0.65;;;23.80;99.90;;;;;;20812641;28;20637;-37
2022/08/04 17:55:46;;;;;;;1.08;0.57;;;23.60;99.90;;;;;;20805581;28;20430;-37
2022/08/04 18:05:49;;;;;;;0.70;0.40;;;23.50;99.90;;;;;;20809860;28;20240;-37
2022/08/04 18:16:00;;;;;;;0.47;0.15;;;23.30;99.90;;;;;;20807524;28;20611;-39
2022/08/04 18:26:01;;;;;;;0.90;0.30;;;23.20;99.90;;;;;;20810207;28;20257;-39
2022/08/04 18:36:03;;;;;;;1.13;0.38;;;23.00;99.90;;;;;;20836560;28;20162;-39
2022/08/04 18:46:04;;;;;;;0.95;0.47;;;22.80;99.90;;;;;;20783155;28;20051;-39
2022/08/04 18:56:06;;;;;;;1.00;0.40;;;22.70;99.90;;;;;;20765595;28;20053;-39
2022/08/04 19:06:07;;;;;;;1.23;0.38;;;22.50;99.90;;;;;;20810858;28;20059;-39
2022/08/04 19:16:08;;;;;;;2.30;0.47;;;22.40;99.90;;;;;;20835505;28;20509;-40
2022/08/04 19:26:09;;;;;;;1.38;0.40;;;22.30;99.90;;;;;;20838330;28;20682;-40
2022/08/04 19:36:10;;;;;;;1.25;0.68;;;22.20;99.90;;;;;;20831996;28;20242;-39
2022/08/04 19:46:15;;;;;;;0.90;0.40;;;22.00;99.90;;;;;;20820099;28;20458;-39
2022/08/04 19:56:16;;;;;;;1.15;0.60;;;21.80;99.90;;;;;;20822435;28;20113;-39
2022/08/04 20:06:17;;;;;;;1.08;0.50;;;21.60;99.90;;;;;;20827812;28;20130;-39
2022/08/04 20:16:18;;;;;;;3.03;0.52;;;21.50;99.90;;;;;;20823612;28;20133;-39
2022/08/04 20:26:19;;;;;;;1.48;0.65;;;21.30;99.90;;;;;;20827678;28;20511;-39
2022/08/04 20:36:20;;;;;;;1.67;0.40;;;21.20;99.90;;;;;;20815341;28;20283;-40
2022/08/04 20:46:21;;;;;;;1.63;0.63;;;21.20;99.90;;;;;;20813205;28;20040;-40
2022/08/04 20:56:22;;;;;;;2.53;0.88;;;21.00;99.90;;;;;;20815468;28;20110;-39
2022/08/04 21:06:23;;;;;;;1.08;0.52;;;20.80;99.90;;;;;;20808967;28;20112;-40
2022/08/04 21:16:24;;;;;;;0.90;0.50;;;20.80;99.90;;;;;;20813929;28;20037;-39
2022/08/04 21:26:25;;;;;;;1.42;0.30;;;20.70;99.90;;;;;;20832084;28;20044;-40
2022/08/04 21:36:28;;;;;;;1.75;0.63;;;20.60;99.90;;;;;;20833051;28;20052;-39
2022/08/04 21:46:29;;;;;;;1.38;0.70;;;20.50;99.90;;;;;;20823675;28;20087;-39
2022/08/04 21:56:30;;;;;;;1.33;0.60;;;20.40;99.90;;;;;;20826898;28;20060;-39
2022/08/04 22:06:31;;;;;;;1.83;0.65;;;20.40;99.90;;;;;;20830752;28;20052;-40
2022/08/04 22:16:33;;;;;;;3.97;1.27;;;20.20;99.90;;;;;;20837897;28;20083;-39
2022/08/04 22:26:34;;;;;;;1.88;0.52;;;20.10;99.90;;;;;;20843104;28;20076;-40
2022/08/04 22:36:35;;;;;;;2.38;0.73;;;20.00;99.90;;;;;;20839257;28;20069;-40
2022/08/04 22:46:36;;;;;;;1.65;0.50;;;20.10;99.90;;;;;;20840799;28;20522;-39
2022/08/04 22:56:37;;;;;;;2.45;0.90;;;19.90;99.90;;;;;;20829450;28;20041;-40
2022/08/04 23:06:38;;;;;;;1.45;0.90;;;19.90;99.90;;;;;;20837086;28;20041;-40
2022/08/04 23:16:39;;;;;;;8.02;2.00;;;19.80;99.90;;;;;;20834160;28;20072;-40
2022/08/04 23:26:40;;;;;;;1.25;0.55;;;19.80;99.90;;;;;;20834456;28;20037;-39
2022/08/04 23:36:41;;;;;;;1.73;0.57;;;19.60;99.90;;;;;;20839043;28;20102;-39
2022/08/04 23:46:42;;;;;;;1.65;0.70;;;19.60;99.90;;;;;;20829787;28;20681;-39
2022/08/04 23:56:43;;;;;;;1.15;0.35;;;19.50;99.90;;;;;;20832362;28;20049;-40
